Time;durP1;ratioP1;P1;durP2;ratioP2;P2;SDS_P1;SDS_P2;PMS_P1;PMS_P2;Temp;Humidity;BMP_temperature;BMP_pressure;BME280_temperature;BME280_humidity;BME280_pressure;Samples;Min_cycle;Max_cycle;Signal;HPM_P1;HPM_P2
2024/01/14 00:01:14;;;;;;;31.17;27.58;;;;;;;;;;5121337;27;20084;-77
2024/01/14 00:03:41;;;;;;;39.83;34.40;;;;;;;;;;5118412;27;20059;-77
2024/01/14 00:06:06;;;;;;;40.17;33.58;;;;;;;;;;5121460;27;20050;-78
2024/01/14 00:08:32;;;;;;;42.15;37.25;;;;;;;;;;5121099;27;20035;-77
2024/01/14 00:10:57;;;;;;;34.38;28.50;;;;;;;;;;5119915;27;20055;-76
2024/01/14 00:13:22;;;;;;;30.67;25.55;;;;;;;;;;5115781;27;20118;-80
2024/01/14 00:15:48;;;;;;;34.47;29.20;;;;;;;;;;5119810;27;20116;-77
2024/01/14 00:18:13;;;;;;;35.00;29.70;;;;;;;;;;5118735;27;20012;-79
2024/01/14 00:20:38;;;;;;;36.47;31.20;;;;;;;;;;5118661;27;20117;-77
2024/01/14 00:23:04;;;;;;;48.88;39.72;;;;;;;;;;5117327;27;20062;-76
2024/01/14 00:25:30;;;;;;;70.03;52.40;;;;;;;;;;5118873;27;20027;-78
2024/01/14 00:27:55;;;;;;;84.05;65.55;;;;;;;;;;5116490;27;20027;-78
2024/01/14 00:30:20;;;;;;;143.55;96.63;;;;;;;;;;5117313;27;20107;-78
2024/01/14 00:32:47;;;;;;;75.43;52.97;;;;;;;;;;5118309;27;20034;-78
2024/01/14 00:35:13;;;;;;;374.13;208.95;;;;;;;;;;5117450;27;20110;-76
2024/01/14 00:37:38;;;;;;;344.20;191.85;;;;;;;;;;5118677;27;20106;-78
2024/01/14 00:40:07;;;;;;;206.85;122.40;;;;;;;;;;5116320;27;20070;-79
2024/01/14 00:42:32;;;;;;;100.85;69.55;;;;;;;;;;5121423;27;20946;-78
2024/01/14 00:44:58;;;;;;;54.60;41.30;;;;;;;;;;5115377;27;20031;-78
2024/01/14 00:47:23;;;;;;;47.30;39.25;;;;;;;;;;5114984;27;20107;-77
2024/01/14 00:49:49;;;;;;;63.15;49.08;;;;;;;;;;5118230;27;20023;-78
2024/01/14 00:52:14;;;;;;;62.83;50.60;;;;;;;;;;5118991;27;20148;-77
2024/01/14 00:54:39;;;;;;;68.97;55.30;;;;;;;;;;5120909;27;20084;-77
2024/01/14 00:57:05;;;;;;;95.70;71.88;;;;;;;;;;5117291;27;20026;-77
2024/01/14 00:59:30;;;;;;;89.13;69.90;;;;;;;;;;5118626;27;20030;-77
2024/01/14 01:01:56;;;;;;;92.75;71.70;;;;;;;;;;5097595;27;20143;-77
2024/01/14 01:04:22;;;;;;;72.93;56.85;;;;;;;;;;5117340;27;20427;-78
2024/01/14 01:06:48;;;;;;;83.90;69.68;;;;;;;;;;5114230;27;20027;-78
2024/01/14 01:09:13;;;;;;;76.03;61.35;;;;;;;;;;5106525;27;20027;-79
2024/01/14 01:11:38;;;;;;;106.60;89.80;;;;;;;;;;5115572;27;20055;-77
2024/01/14 01:14:04;;;;;;;60.42;51.55;;;;;;;;;;5114368;27;20026;-78
2024/01/14 01:16:29;;;;;;;57.67;49.38;;;;;;;;;;5100373;27;20035;-78
2024/01/14 01:18:54;;;;;;;129.40;106.10;;;;;;;;;;5104869;27;20085;-78
2024/01/14 01:21:20;;;;;;;120.78;98.70;;;;;;;;;;5107218;27;20043;-78
2024/01/14 01:23:45;;;;;;;85.10;67.55;;;;;;;;;;5111004;27;20109;-76
2024/01/14 01:26:11;;;;;;;114.78;95.88;;;;;;;;;;5101009;27;20114;-76
2024/01/14 01:28:36;;;;;;;97.25;79.57;;;;;;;;;;5099757;27;20039;-76
2024/01/14 01:31:01;;;;;;;107.68;93.90;;;;;;;;;;5098734;27;20433;-76
2024/01/14 01:33:27;;;;;;;83.70;66.05;;;;;;;;;;5098829;27;20350;-77
2024/01/14 01:35:52;;;;;;;82.80;58.95;;;;;;;;;;5103004;27;20030;-77
2024/01/14 01:38:17;;;;;;;76.93;56.17;;;;;;;;;;5095869;27;20027;-76
2024/01/14 01:40:43;;;;;;;86.45;65.65;;;;;;;;;;5107373;27;20028;-78
2024/01/14 01:43:08;;;;;;;92.88;74.35;;;;;;;;;;5108098;27;20062;-76
2024/01/14 01:45:33;;;;;;;81.15;65.82;;;;;;;;;;5120097;27;20604;-75
2024/01/14 01:48:00;;;;;;;139.15;103.80;;;;;;;;;;5117372;27;20091;-75
2024/01/14 01:50:26;;;;;;;171.05;129.65;;;;;;;;;;5118954;27;20038;-76
2024/01/14 01:52:52;;;;;;;184.15;132.55;;;;;;;;;;5103321;27;20025;-78
2024/01/14 01:55:17;;;;;;;169.95;124.70;;;;;;;;;;5103125;27;20338;-76
2024/01/14 01:57:44;;;;;;;136.07;104.13;;;;;;;;;;5118432;27;20102;-77
2024/01/14 02:00:11;;;;;;;107.47;88.57;;;;;;;;;;5118622;27;20320;-76
2024/01/14 02:02:37;;;;;;;87.05;72.72;;;;;;;;;;5115994;27;20019;-75
2024/01/14 02:05:03;;;;;;;64.43;51.25;;;;;;;;;;5113621;27;20023;-76
2024/01/14 02:07:28;;;;;;;147.25;109.68;;;;;;;;;;5097865;27;20080;-76
2024/01/14 02:09:54;;;;;;;94.28;75.95;;;;;;;;;;5108615;27;20856;-78
2024/01/14 02:12:19;;;;;;;103.38;84.10;;;;;;;;;;5095135;27;20475;-76
2024/01/14 02:14:45;;;;;;;103.32;84.28;;;;;;;;;;5097589;27;20102;-76
2024/01/14 02:17:10;;;;;;;95.68;80.07;;;;;;;;;;5101397;27;20347;-76
2024/01/14 02:19:36;;;;;;;100.40;84.25;;;;;;;;;;5106078;28;20019;-77
2024/01/14 02:22:04;;;;;;;76.13;62.83;;;;;;;;;;5115494;28;20046;-75
2024/01/14 02:24:30;;;;;;;124.18;97.88;;;;;;;;;;5117747;28;20027;-76
2024/01/14 02:26:55;;;;;;;148.00;113.95;;;;;;;;;;5118230;28;20453;-77
2024/01/14 02:29:21;;;;;;;99.13;80.13;;;;;;;;;;5112610;28;20030;-77
2024/01/14 02:31:47;;;;;;;151.93;127.72;;;;;;;;;;5105029;28;20037;-79
2024/01/14 02:34:12;;;;;;;148.80;127.82;;;;;;;;;;5100485;28;20051;-76
2024/01/14 02:36:38;;;;;;;74.63;64.07;;;;;;;;;;5111914;28;20019;-76
2024/01/14 02:39:04;;;;;;;51.95;43.03;;;;;;;;;;5112519;28;20450;-76
2024/01/14 02:41:30;;;;;;;77.93;58.38;;;;;;;;;;5083922;28;20461;-76
2024/01/14 02:43:55;;;;;;;110.47;81.47;;;;;;;;;;5118014;28;20093;-78
2024/01/14 02:46:21;;;;;;;180.65;135.30;;;;;;;;;;5117548;28;20840;-76
2024/01/14 02:48:46;;;;;;;183.38;134.60;;;;;;;;;;5096711;27;20350;-78
2024/01/14 02:51:11;;;;;;;194.98;147.48;;;;;;;;;;5122783;27;20035;-76
2024/01/14 02:53:37;;;;;;;116.60;90.70;;;;;;;;;;5103170;27;20350;-77
2024/01/14 02:56:03;;;;;;;124.60;93.55;;;;;;;;;;5104287;27;20023;-78
2024/01/14 02:58:29;;;;;;;141.35;113.63;;;;;;;;;;5114463;27;20038;-77
2024/01/14 03:00:54;;;;;;;118.32;91.40;;;;;;;;;;5123022;27;20438;-78
2024/01/14 03:03:20;;;;;;;208.13;176.18;;;;;;;;;;5104801;27;20461;-78
2024/01/14 03:05:45;;;;;;;142.32;110.60;;;;;;;;;;5120443;27;20458;-76
2024/01/14 03:08:11;;;;;;;127.75;99.53;;;;;;;;;;5121542;27;20062;-78
2024/01/14 03:10:36;;;;;;;82.65;66.10;;;;;;;;;;5120655;27;20046;-78
2024/01/14 03:13:01;;;;;;;66.93;55.47;;;;;;;;;;5119401;27;20664;-76
2024/01/14 03:15:27;;;;;;;60.90;49.47;;;;;;;;;;5119611;27;20027;-76
2024/01/14 03:17:52;;;;;;;61.15;49.17;;;;;;;;;;5088463;27;20061;-78
2024/01/14 03:20:17;;;;;;;123.47;92.65;;;;;;;;;;5118560;27;20042;-78
2024/01/14 03:22:43;;;;;;;95.20;74.43;;;;;;;;;;5122008;27;20027;-76
2024/01/14 03:25:08;;;;;;;67.30;54.38;;;;;;;;;;5118360;27;20023;-77
2024/01/14 03:27:34;;;;;;;74.90;63.53;;;;;;;;;;5091642;27;20054;-78
2024/01/14 03:29:59;;;;;;;52.42;43.33;;;;;;;;;;5097373;27;20019;-76
2024/01/14 03:32:25;;;;;;;30.98;26.98;;;;;;;;;;5119047;27;20493;-77
2024/01/14 03:34:50;;;;;;;67.50;53.88;;;;;;;;;;5119830;27;20034;-76
2024/01/14 03:37:15;;;;;;;29.65;24.63;;;;;;;;;;5121087;27;20110;-78
2024/01/14 03:39:41;;;;;;;36.75;29.15;;;;;;;;;;5118868;27;20059;-77
2024/01/14 03:42:07;;;;;;;46.15;38.03;;;;;;;;;;5118567;27;20035;-78
2024/01/14 03:44:32;;;;;;;41.22;33.05;;;;;;;;;;5121079;27;20019;-78
2024/01/14 03:46:57;;;;;;;70.18;56.22;;;;;;;;;;5119838;27;20065;-76
2024/01/14 03:49:23;;;;;;;50.38;43.00;;;;;;;;;;5102398;27;20348;-76
2024/01/14 03:51:48;;;;;;;29.35;25.70;;;;;;;;;;5116343;27;20151;-77
2024/01/14 03:54:13;;;;;;;26.33;21.95;;;;;;;;;;5122208;27;20059;-77
2024/01/14 03:56:39;;;;;;;26.52;22.08;;;;;;;;;;5117050;27;20039;-77
2024/01/14 03:59:04;;;;;;;73.30;53.00;;;;;;;;;;5105583;27;20023;-77
2024/01/14 04:01:29;;;;;;;56.75;45.33;;;;;;;;;;5113020;27;20094;-77
2024/01/14 04:03:55;;;;;;;41.50;34.33;;;;;;;;;;5119127;27;20023;-77
2024/01/14 04:06:20;;;;;;;38.78;31.80;;;;;;;;;;5115344;27;20130;-77
2024/01/14 04:08:46;;;;;;;33.22;26.75;;;;;;;;;;5119697;27;20041;-77
2024/01/14 04:11:11;;;;;;;31.23;26.13;;;;;;;;;;5100357;27;20089;-77
2024/01/14 04:13:37;;;;;;;40.42;32.97;;;;;;;;;;5107462;27;20028;-77
2024/01/14 04:16:02;;;;;;;38.10;30.58;;;;;;;;;;5112767;27;20423;-78
2024/01/14 04:18:29;;;;;;;41.40;34.58;;;;;;;;;;5121524;27;20465;-77
2024/01/14 04:20:54;;;;;;;50.30;40.60;;;;;;;;;;5119823;27;20035;-77
2024/01/14 04:23:19;;;;;;;34.90;28.10;;;;;;;;;;5100644;27;20080;-77
2024/01/14 04:25:45;;;;;;;42.50;36.47;;;;;;;;;;5114669;27;20366;-77
2024/01/14 04:28:10;;;;;;;41.92;36.67;;;;;;;;;;5118857;27;20024;-77
2024/01/14 04:30:36;;;;;;;38.20;32.33;;;;;;;;;;5122337;27;20047;-77
2024/01/14 04:33:01;;;;;;;24.65;21.08;;;;;;;;;;5118511;27;20041;-77
2024/01/14 04:35:26;;;;;;;27.15;23.23;;;;;;;;;;5104617;27;20023;-78
2024/01/14 04:37:52;;;;;;;22.83;20.20;;;;;;;;;;5118153;27;20034;-77
2024/01/14 04:40:18;;;;;;;24.30;21.27;;;;;;;;;;5117083;27;20037;-77
2024/01/14 04:42:43;;;;;;;26.42;21.75;;;;;;;;;;5118600;27;20042;-77
2024/01/14 04:45:08;;;;;;;31.08;24.58;;;;;;;;;;5119993;27;20569;-77
2024/01/14 04:47:34;;;;;;;35.10;31.30;;;;;;;;;;5115324;27;20019;-77
2024/01/14 04:49:59;;;;;;;81.57;53.67;;;;;;;;;;5117359;27;20347;-77
2024/01/14 04:52:24;;;;;;;38.47;29.73;;;;;;;;;;5119979;27;20036;-77
2024/01/14 04:54:50;;;;;;;33.60;27.17;;;;;;;;;;5120153;27;20019;-77
2024/01/14 04:57:15;;;;;;;60.78;42.45;;;;;;;;;;5117836;27;20019;-77
2024/01/14 04:59:41;;;;;;;51.22;38.25;;;;;;;;;;5101268;27;20062;-77
2024/01/14 05:02:07;;;;;;;35.97;29.75;;;;;;;;;;5118692;27;20034;-78
2024/01/14 05:04:32;;;;;;;33.70;26.95;;;;;;;;;;5094504;27;20022;-78
2024/01/14 05:06:58;;;;;;;36.65;29.23;;;;;;;;;;5102770;27;20405;-76
2024/01/14 05:09:23;;;;;;;32.67;27.17;;;;;;;;;;5118463;27;20027;-76
2024/01/14 05:11:48;;;;;;;33.50;28.80;;;;;;;;;;5099325;27;20044;-76
2024/01/14 05:14:14;;;;;;;26.17;22.63;;;;;;;;;;5118722;27;20031;-81
2024/01/14 05:16:39;;;;;;;24.88;21.05;;;;;;;;;;5115768;27;20026;-77
2024/01/14 05:19:04;;;;;;;31.50;26.42;;;;;;;;;;5117183;27;20167;-76
2024/01/14 05:21:30;;;;;;;30.52;25.83;;;;;;;;;;5107009;27;20067;-77
2024/01/14 05:23:55;;;;;;;26.63;23.33;;;;;;;;;;5110202;27;20054;-77
2024/01/14 05:26:20;;;;;;;31.65;26.33;;;;;;;;;;5099424;27;20023;-77
2024/01/14 05:28:46;;;;;;;36.63;30.38;;;;;;;;;;5118225;27;20417;-76
2024/01/14 05:31:12;;;;;;;43.67;35.40;;;;;;;;;;5118714;27;20015;-77
2024/01/14 05:33:37;;;;;;;60.40;47.50;;;;;;;;;;5103032;27;20042;-78
2024/01/14 05:36:02;;;;;;;60.72;49.13;;;;;;;;;;5113124;27;20068;-78
2024/01/14 05:38:28;;;;;;;46.58;36.85;;;;;;;;;;5115300;27;20025;-78
2024/01/14 05:40:53;;;;;;;57.67;44.15;;;;;;;;;;5103418;27;20035;-78
2024/01/14 05:43:18;;;;;;;56.13;44.25;;;;;;;;;;5079514;27;20067;-76
2024/01/14 05:45:44;;;;;;;55.00;44.83;;;;;;;;;;5117622;27;20103;-77
2024/01/14 05:48:09;;;;;;;55.83;45.75;;;;;;;;;;5100866;27;20441;-77
2024/01/14 05:50:34;;;;;;;60.30;47.17;;;;;;;;;;5117457;27;20083;-79
2024/01/14 05:53:00;;;;;;;48.75;40.67;;;;;;;;;;5114644;27;20160;-78
2024/01/14 05:55:25;;;;;;;85.38;64.65;;;;;;;;;;5122221;27;20073;-76
2024/01/14 05:57:50;;;;;;;59.60;48.63;;;;;;;;;;5116356;27;20015;-77
2024/01/14 06:00:19;;;;;;;68.60;54.83;;;;;;;;;;5120299;27;20035;-78
2024/01/14 06:02:45;;;;;;;72.67;57.07;;;;;;;;;;5113482;27;20024;-79
2024/01/14 06:05:10;;;;;;;85.05;69.90;;;;;;;;;;5097833;27;20114;-77
2024/01/14 06:07:35;;;;;;;108.00;77.68;;;;;;;;;;5112170;27;20024;-79
2024/01/14 06:10:01;;;;;;;92.40;73.05;;;;;;;;;;5085995;28;20047;-78
2024/01/14 06:12:27;;;;;;;94.53;74.18;;;;;;;;;;5117591;27;20047;-81
2024/01/14 06:14:53;;;;;;;137.02;105.43;;;;;;;;;;5117218;27;20091;-80
2024/01/14 06:17:18;;;;;;;134.85;104.25;;;;;;;;;;5117319;27;20068;-81
2024/01/14 06:19:43;;;;;;;321.73;242.60;;;;;;;;;;5107359;27;20031;-78
2024/01/14 06:22:09;;;;;;;325.75;263.00;;;;;;;;;;5102543;28;20027;-77
2024/01/14 06:24:34;;;;;;;274.73;218.88;;;;;;;;;;5097498;27;20043;-77
2024/01/14 06:26:59;;;;;;;375.33;288.00;;;;;;;;;;5102712;27;20085;-76
2024/01/14 06:29:25;;;;;;;262.55;214.63;;;;;;;;;;5102199;27;20023;-76
2024/01/14 06:31:50;;;;;;;151.52;124.53;;;;;;;;;;5106138;27;20042;-76
2024/01/14 06:34:15;;;;;;;179.48;157.98;;;;;;;;;;5101537;27;20031;-76
2024/01/14 06:36:41;;;;;;;107.95;90.68;;;;;;;;;;5115125;27;20100;-76
2024/01/14 06:39:06;;;;;;;77.45;59.40;;;;;;;;;;5127163;27;20106;-78
2024/01/14 06:41:31;;;;;;;46.85;37.08;;;;;;;;;;5126029;27;20100;-77
2024/01/14 06:43:57;;;;;;;50.88;42.00;;;;;;;;;;5112556;27;20475;-81
2024/01/14 06:46:22;;;;;;;112.22;83.65;;;;;;;;;;5106372;27;20438;-78
2024/01/14 06:48:48;;;;;;;172.57;120.55;;;;;;;;;;5108296;27;20020;-77
2024/01/14 06:51:14;;;;;;;164.57;120.40;;;;;;;;;;5121776;27;20042;-76
2024/01/14 06:53:39;;;;;;;78.45;56.92;;;;;;;;;;5109063;27;20421;-77
2024/01/14 06:56:05;;;;;;;70.18;52.47;;;;;;;;;;5105713;27;20038;-77
2024/01/14 06:58:30;;;;;;;76.28;60.40;;;;;;;;;;5110999;27;20114;-78
2024/01/14 07:00:56;;;;;;;97.20;77.68;;;;;;;;;;5123776;27;20031;-78
2024/01/14 07:03:21;;;;;;;61.75;52.40;;;;;;;;;;5123834;27;20019;-78
2024/01/14 07:05:46;;;;;;;75.20;67.00;;;;;;;;;;5123411;27;20023;-78
2024/01/14 07:08:12;;;;;;;75.13;67.22;;;;;;;;;;5123853;27;20800;-76
2024/01/14 07:10:37;;;;;;;71.32;63.72;;;;;;;;;;5120005;27;20468;-77
2024/01/14 07:13:03;;;;;;;56.22;44.53;;;;;;;;;;5110898;27;20464;-78
2024/01/14 07:15:28;;;;;;;105.65;89.90;;;;;;;;;;5125198;27;20027;-77
2024/01/14 07:17:53;;;;;;;141.00;116.63;;;;;;;;;;5124858;27;20449;-77
2024/01/14 07:20:19;;;;;;;130.40;115.07;;;;;;;;;;5119392;27;20035;-77
2024/01/14 07:22:45;;;;;;;83.20;67.60;;;;;;;;;;5117140;27;20489;-78
2024/01/14 07:25:10;;;;;;;118.40;87.10;;;;;;;;;;5119696;27;20027;-78
2024/01/14 07:27:36;;;;;;;356.00;233.48;;;;;;;;;;5122989;27;20027;-78
2024/01/14 07:30:02;;;;;;;347.67;218.30;;;;;;;;;;5124793;27;20027;-81
2024/01/14 07:32:27;;;;;;;168.52;114.50;;;;;;;;;;5107341;27;20015;-76
2024/01/14 07:34:53;;;;;;;149.73;105.82;;;;;;;;;;5120835;27;20075;-77
2024/01/14 07:37:18;;;;;;;151.27;108.72;;;;;;;;;;5119721;27;20075;-77
2024/01/14 07:39:43;;;;;;;464.15;345.15;;;;;;;;;;5118043;27;20027;-77
2024/01/14 07:42:09;;;;;;;424.67;291.95;;;;;;;;;;5108923;27;20081;-77
2024/01/14 07:44:35;;;;;;;200.50;148.75;;;;;;;;;;5107896;27;20023;-78
2024/01/14 07:47:00;;;;;;;152.98;123.13;;;;;;;;;;5103852;27;23072;-78
2024/01/14 07:49:25;;;;;;;374.55;278.10;;;;;;;;;;5095709;27;20040;-78
2024/01/14 07:51:51;;;;;;;155.85;127.55;;;;;;;;;;5102829;27;20051;-78
2024/01/14 07:54:16;;;;;;;154.73;130.98;;;;;;;;;;5114612;27;20016;-78
2024/01/14 07:56:41;;;;;;;140.15;120.20;;;;;;;;;;5121597;27;20469;-78
2024/01/14 07:59:07;;;;;;;110.20;92.85;;;;;;;;;;5122578;27;20019;-78
2024/01/14 08:01:32;;;;;;;103.15;90.32;;;;;;;;;;5122085;27;20019;-78
2024/01/14 08:03:57;;;;;;;79.60;62.95;;;;;;;;;;5118565;27;20037;-79
2024/01/14 08:06:24;;;;;;;87.65;66.55;;;;;;;;;;5105849;27;20027;-77
2024/01/14 08:08:49;;;;;;;64.53;56.95;;;;;;;;;;5120941;27;20031;-77
2024/01/14 08:11:14;;;;;;;79.28;70.20;;;;;;;;;;5101944;27;20056;-78
2024/01/14 08:13:40;;;;;;;77.65;68.05;;;;;;;;;;5101537;27;20074;-79
2024/01/14 08:16:05;;;;;;;58.38;52.00;;;;;;;;;;5101396;27;20493;-78
2024/01/14 08:18:32;;;;;;;35.65;31.10;;;;;;;;;;5122065;27;20345;-77
2024/01/14 08:20:57;;;;;;;143.30;104.47;;;;;;;;;;5120497;27;20031;-77
2024/01/14 08:23:22;;;;;;;48.30;39.78;;;;;;;;;;5121636;27;20461;-78
2024/01/14 08:25:48;;;;;;;62.47;55.75;;;;;;;;;;5113069;27;20146;-78
2024/01/14 08:28:13;;;;;;;68.38;56.30;;;;;;;;;;5113926;27;20070;-78
2024/01/14 08:30:38;;;;;;;65.93;55.35;;;;;;;;;;5123706;27;20038;-79
2024/01/14 08:33:04;;;;;;;130.90;105.03;;;;;;;;;;5123069;27;20392;-78
2024/01/14 08:35:29;;;;;;;112.10;98.57;;;;;;;;;;5112703;27;20087;-79
2024/01/14 08:37:54;;;;;;;47.58;41.83;;;;;;;;;;5100526;27;20457;-78
2024/01/14 08:40:20;;;;;;;45.53;39.55;;;;;;;;;;5099616;27;20023;-77
2024/01/14 08:42:45;;;;;;;50.28;44.88;;;;;;;;;;5095481;27;20046;-79
2024/01/14 08:45:15;;;;;;;66.43;56.85;;;;;;;;;;5114835;27;20023;-79
2024/01/14 08:47:40;;;;;;;76.75;65.03;;;;;;;;;;5094980;27;20022;-80
2024/01/14 08:50:07;;;;;;;83.28;67.55;;;;;;;;;;5111163;27;20468;-79
2024/01/14 08:52:33;;;;;;;121.38;88.55;;;;;;;;;;5120065;27;20061;-78
2024/01/14 08:54:58;;;;;;;125.75;99.70;;;;;;;;;;5105965;27;20043;-80
2024/01/14 08:57:24;;;;;;;128.10;94.28;;;;;;;;;;5123440;27;20393;-80
2024/01/14 08:59:49;;;;;;;116.78;91.22;;;;;;;;;;5121979;27;20114;-81
2024/01/14 09:02:14;;;;;;;212.40;167.90;;;;;;;;;;5122381;27;20207;-80
2024/01/14 09:04:40;;;;;;;133.77;106.25;;;;;;;;;;5112087;27;20058;-80
2024/01/14 09:07:05;;;;;;;201.00;144.43;;;;;;;;;;5107955;27;20031;-79
2024/01/14 09:09:32;;;;;;;97.18;77.07;;;;;;;;;;5087733;27;20034;-80
2024/01/14 09:11:57;;;;;;;104.47;88.10;;;;;;;;;;5121920;27;20065;-80
2024/01/14 09:14:23;;;;;;;65.45;58.40;;;;;;;;;;5121330;27;20058;-79
2024/01/14 09:16:49;;;;;;;102.72;76.82;;;;;;;;;;5104601;27;20034;-79
2024/01/14 09:19:14;;;;;;;92.13;68.07;;;;;;;;;;5101484;27;20019;-80
2024/01/14 09:21:39;;;;;;;128.25;94.88;;;;;;;;;;5120345;27;20035;-81
2024/01/14 09:24:05;;;;;;;183.15;152.25;;;;;;;;;;5120826;27;20035;-81
2024/01/14 09:26:31;;;;;;;181.20;158.27;;;;;;;;;;5118077;27;20099;-80
2024/01/14 09:28:56;;;;;;;96.93;86.28;;;;;;;;;;5108747;27;21080;-83
2024/01/14 09:31:22;;;;;;;79.38;64.60;;;;;;;;;;5115353;27;20023;-82
2024/01/14 09:33:47;;;;;;;94.07;80.35;;;;;;;;;;5105327;27;20023;-80
2024/01/14 09:36:12;;;;;;;70.05;58.08;;;;;;;;;;5103774;27;20038;-80
2024/01/14 09:38:38;;;;;;;48.22;41.05;;;;;;;;;;5102147;27;20047;-79
2024/01/14 09:41:16;;;;;;;53.67;44.97;;;;;;;;;;5099084;27;20018;-81
2024/01/14 09:43:43;;;;;;;62.60;54.47;;;;;;;;;;5101904;27;20031;-80
2024/01/14 09:46:09;;;;;;;99.47;78.28;;;;;;;;;;5098692;27;20020;-80
2024/01/14 09:48:34;;;;;;;31.38;27.42;;;;;;;;;;5100346;27;20019;-82
2024/01/14 09:51:03;;;;;;;20.95;18.70;;;;;;;;;;5103522;27;20347;-81
2024/01/14 09:53:29;;;;;;;19.20;15.10;;;;;;;;;;5098061;27;20030;-79
2024/01/14 09:55:55;;;;;;;17.13;13.05;;;;;;;;;;5098096;27;20370;-79
2024/01/14 09:58:20;;;;;;;15.35;12.95;;;;;;;;;;5100644;27;20380;-78
2024/01/14 10:00:47;;;;;;;14.38;12.98;;;;;;;;;;5098465;27;20019;-77
2024/01/14 10:03:12;;;;;;;17.08;15.13;;;;;;;;;;5110763;27;20027;-79
2024/01/14 10:05:38;;;;;;;16.02;13.35;;;;;;;;;;5105886;27;20072;-82
2024/01/14 10:08:04;;;;;;;16.27;13.52;;;;;;;;;;5107131;27;20031;-78
2024/01/14 10:10:31;;;;;;;31.20;26.95;;;;;;;;;;5111065;27;20059;-77
2024/01/14 10:12:56;;;;;;;30.55;22.88;;;;;;;;;;5100568;27;20022;-78
2024/01/14 10:15:21;;;;;;;35.90;27.02;;;;;;;;;;5108370;27;20341;-78
2024/01/14 10:17:47;;;;;;;23.95;20.75;;;;;;;;;;5110668;27;20036;-77
2024/01/14 10:20:13;;;;;;;20.90;14.73;;;;;;;;;;5099160;27;20026;-77
2024/01/14 10:22:41;;;;;;;19.63;14.32;;;;;;;;;;5107583;28;20034;-78
2024/01/14 10:25:06;;;;;;;17.15;13.95;;;;;;;;;;5102292;28;20430;-75
2024/01/14 10:27:31;;;;;;;19.58;15.27;;;;;;;;;;5091681;28;20023;-74
2024/01/14 10:29:57;;;;;;;42.70;33.90;;;;;;;;;;5107986;28;20031;-76
2024/01/14 10:32:22;;;;;;;26.38;23.05;;;;;;;;;;5102805;28;20539;-78
2024/01/14 10:34:47;;;;;;;20.25;18.02;;;;;;;;;;5100994;28;20027;-77
2024/01/14 10:37:13;;;;;;;20.90;17.83;;;;;;;;;;5105414;28;20038;-76
2024/01/14 10:39:40;;;;;;;18.95;15.45;;;;;;;;;;5105579;28;20015;-76
2024/01/14 10:42:05;;;;;;;18.63;16.73;;;;;;;;;;5107675;28;20035;-78
2024/01/14 10:44:31;;;;;;;23.63;16.50;;;;;;;;;;5113462;28;20054;-76
2024/01/14 10:47:01;;;;;;;18.77;14.73;;;;;;;;;;5107291;28;20785;-78
2024/01/14 10:49:26;;;;;;;23.58;16.73;;;;;;;;;;5106977;28;20024;-81
2024/01/14 10:52:10;;;;;;;18.90;13.32;;;;;;;;;;5110355;28;20027;-78
2024/01/14 10:54:45;;;;;;;15.63;12.52;;;;;;;;;;5098241;28;20030;-78
2024/01/14 10:57:19;;;;;;;18.10;14.43;;;;;;;;;;5109638;28;20111;-77
2024/01/14 10:59:45;;;;;;;19.70;14.63;;;;;;;;;;5110343;28;20028;-78
2024/01/14 11:02:15;;;;;;;19.02;14.35;;;;;;;;;;5111532;28;20445;-78
2024/01/14 11:04:41;;;;;;;20.50;14.85;;;;;;;;;;5110245;28;20043;-79
2024/01/14 11:07:06;;;;;;;18.35;14.93;;;;;;;;;;5101413;28;20019;-79
2024/01/14 11:09:32;;;;;;;19.23;17.15;;;;;;;;;;5114591;27;20095;-78
2024/01/14 11:12:02;;;;;;;19.75;15.90;;;;;;;;;;5111918;27;20042;-79
2024/01/14 11:14:46;;;;;;;29.80;22.13;;;;;;;;;;5116424;27;20034;-78
2024/01/14 11:17:17;;;;;;;26.67;21.15;;;;;;;;;;5105226;27;20466;-80
2024/01/14 11:19:43;;;;;;;26.85;19.42;;;;;;;;;;5102852;27;20076;-78
2024/01/14 11:22:22;;;;;;;32.22;21.80;;;;;;;;;;5112569;27;20035;-80
2024/01/14 11:24:47;;;;;;;22.80;17.85;;;;;;;;;;5115036;27;20449;-78
2024/01/14 11:27:14;;;;;;;25.70;19.17;;;;;;;;;;5115702;27;20063;-77
2024/01/14 11:29:40;;;;;;;24.45;20.17;;;;;;;;;;5114796;27;20408;-78
2024/01/14 11:32:06;;;;;;;22.55;17.67;;;;;;;;;;5115380;27;20127;-78
2024/01/14 11:34:49;;;;;;;22.20;18.45;;;;;;;;;;5113929;27;21180;-78
2024/01/14 11:37:29;;;;;;;20.58;17.58;;;;;;;;;;5103327;27;20026;-78
2024/01/14 11:40:13;;;;;;;21.60;19.05;;;;;;;;;;5099754;27;20350;-77
2024/01/14 11:42:49;;;;;;;23.58;19.52;;;;;;;;;;5117671;27;20032;-78
2024/01/14 11:45:23;;;;;;;24.80;22.02;;;;;;;;;;5117478;27;20027;-80
2024/01/14 11:47:49;;;;;;;26.02;22.65;;;;;;;;;;5113506;27;20056;-77
2024/01/14 11:50:16;;;;;;;29.80;24.83;;;;;;;;;;5114861;27;20084;-77
2024/01/14 11:52:44;;;;;;;28.20;22.35;;;;;;;;;;5113353;27;20019;-79
2024/01/14 11:55:13;;;;;;;21.15;18.38;;;;;;;;;;5114727;27;20449;-76
2024/01/14 11:57:39;;;;;;;31.55;24.95;;;;;;;;;;5108661;27;20736;-76
2024/01/14 12:00:05;;;;;;;30.55;22.67;;;;;;;;;;5103803;27;20038;-77
2024/01/14 12:02:31;;;;;;;41.00;30.77;;;;;;;;;;5106706;27;20019;-77
2024/01/14 12:04:56;;;;;;;35.40;28.40;;;;;;;;;;5110928;27;20019;-79
2024/01/14 12:07:21;;;;;;;43.97;34.20;;;;;;;;;;5108562;27;20081;-80
2024/01/14 12:09:53;;;;;;;23.83;16.55;;;;;;;;;;5106493;27;20043;-79
2024/01/14 12:12:18;;;;;;;17.50;15.00;;;;;;;;;;5102545;27;20038;-78
2024/01/14 12:14:44;;;;;;;15.93;14.13;;;;;;;;;;5088455;27;20031;-79
2024/01/14 12:17:10;;;;;;;20.02;15.52;;;;;;;;;;5102573;27;20023;-79
2024/01/14 12:19:35;;;;;;;18.27;15.48;;;;;;;;;;5104473;27;20064;-76
2024/01/14 12:22:01;;;;;;;20.92;17.13;;;;;;;;;;5105779;27;20354;-77
2024/01/14 12:24:28;;;;;;;19.33;15.38;;;;;;;;;;5110454;27;20028;-75
2024/01/14 12:26:57;;;;;;;23.63;17.92;;;;;;;;;;5112829;27;20027;-77
2024/01/14 12:29:23;;;;;;;25.58;21.15;;;;;;;;;;5112140;27;20028;-76
2024/01/14 12:31:48;;;;;;;27.00;24.33;;;;;;;;;;5096507;27;20430;-78
2024/01/14 12:34:14;;;;;;;25.58;22.52;;;;;;;;;;5108799;27;20043;-76
2024/01/14 12:36:39;;;;;;;30.48;24.55;;;;;;;;;;5113459;27;20623;-77
2024/01/14 12:39:05;;;;;;;26.38;23.33;;;;;;;;;;5105958;27;20522;-77
2024/01/14 12:41:30;;;;;;;23.83;21.33;;;;;;;;;;5112156;27;20035;-77
2024/01/14 12:43:56;;;;;;;30.08;27.00;;;;;;;;;;5104129;27;20024;-78
2024/01/14 12:46:22;;;;;;;29.73;26.60;;;;;;;;;;5113472;27;20452;-75
2024/01/14 12:48:47;;;;;;;42.17;37.97;;;;;;;;;;5112516;27;20023;-74
2024/01/14 12:51:17;;;;;;;39.92;35.67;;;;;;;;;;5112018;27;20030;-78
2024/01/14 12:53:43;;;;;;;29.95;26.80;;;;;;;;;;5110711;27;20088;-77
2024/01/14 12:56:12;;;;;;;23.55;19.33;;;;;;;;;;5106644;27;20023;-78
2024/01/14 12:58:38;;;;;;;49.50;44.15;;;;;;;;;;5103627;27;20349;-76
2024/01/14 13:01:04;;;;;;;49.20;36.97;;;;;;;;;;5111940;27;20477;-77
2024/01/14 13:03:30;;;;;;;36.45;30.70;;;;;;;;;;5103305;27;20159;-79
2024/01/14 13:05:56;;;;;;;51.20;36.60;;;;;;;;;;5107536;27;20105;-76
2024/01/14 13:08:21;;;;;;;63.13;52.00;;;;;;;;;;5110766;27;20027;-78
2024/01/14 13:10:46;;;;;;;71.63;60.92;;;;;;;;;;5084016;27;20078;-75
2024/01/14 13:13:12;;;;;;;75.03;65.80;;;;;;;;;;5105063;27;20943;-76
2024/01/14 13:15:37;;;;;;;75.20;53.33;;;;;;;;;;5111879;27;20055;-75
2024/01/14 13:18:03;;;;;;;51.67;38.65;;;;;;;;;;5093534;27;20429;-76
2024/01/14 13:20:28;;;;;;;42.70;32.95;;;;;;;;;;5098478;27;20034;-76
2024/01/14 13:22:54;;;;;;;71.88;64.57;;;;;;;;;;5088433;27;20032;-77
2024/01/14 13:25:19;;;;;;;90.25;80.95;;;;;;;;;;5111352;27;20050;-79
2024/01/14 13:27:45;;;;;;;62.22;49.35;;;;;;;;;;5101000;27;20031;-77
2024/01/14 13:30:11;;;;;;;44.58;39.70;;;;;;;;;;5082964;27;20498;-78
2024/01/14 13:32:38;;;;;;;41.40;36.92;;;;;;;;;;5099769;27;20068;-77
2024/01/14 13:35:07;;;;;;;30.50;27.20;;;;;;;;;;5097016;27;20064;-79
2024/01/14 13:37:34;;;;;;;25.90;22.52;;;;;;;;;;5102499;27;20027;-80
2024/01/14 13:40:00;;;;;;;39.83;33.42;;;;;;;;;;5111538;27;20042;-81
2024/01/14 13:42:26;;;;;;;31.58;26.75;;;;;;;;;;5113223;27;20114;-80
2024/01/14 13:44:51;;;;;;;35.10;28.65;;;;;;;;;;5112993;27;20496;-80
2024/01/14 13:47:17;;;;;;;46.60;40.20;;;;;;;;;;5106798;27;20019;-81
2024/01/14 13:49:42;;;;;;;45.42;40.58;;;;;;;;;;5099610;27;20054;-81
2024/01/14 13:52:07;;;;;;;40.83;36.45;;;;;;;;;;5108343;27;20046;-80
2024/01/14 13:54:33;;;;;;;63.22;51.53;;;;;;;;;;5096347;27;20037;-80
2024/01/14 13:57:00;;;;;;;78.30;67.78;;;;;;;;;;5112851;27;20028;-81
2024/01/14 13:59:27;;;;;;;108.00;96.15;;;;;;;;;;5093768;27;20432;-79
2024/01/14 14:01:53;;;;;;;68.30;54.78;;;;;;;;;;5096873;27;20429;-80
2024/01/14 14:04:18;;;;;;;71.28;59.95;;;;;;;;;;5110563;27;20110;-78